Terminal Aerodrome Forecast
Issued by NWS Springfield, MO

Current Version | Previous Version | Text Only | Print | Product List | Glossary On
Versions: 1 2 3 4 5 6 7 8 9 10 11 12 13 14 15
175
FTUS43 KSGF 300520
TAFSGF
TAF
KSGF 300520Z 3006/3106 VRB04KT P6SM SCT250
     FM301100 17005KT P6SM SCT250 PROB30 3015/3019 5SM -TSRA
      BKN050CB
     FM301900 19006KT P6SM VCTS SCT050CB BKN250
     FM310100 16007KT P6SM BKN200=

USA.gov is the U.S. government's official web portal to all federal, state and local government web resources and services.